createdAt,value
2018-04-27T00:01:21.381Z,12.50
2018-04-27T00:03:51.510Z,13.80
2018-04-27T00:06:19.989Z,13.60
2018-04-27T00:08:58.867Z,12.63
2018-04-27T00:11:27.326Z,13.50
2018-04-27T00:14:00.748Z,13.77
2018-04-27T00:16:29.171Z,14.37
2018-04-27T00:18:58.955Z,14.47
2018-04-27T00:21:27.017Z,14.37
2018-04-27T00:23:54.740Z,14.90
2018-04-27T00:26:22.394Z,14.67
2018-04-27T00:28:51.150Z,13.83
2018-04-27T00:31:18.821Z,12.53
2018-04-27T00:33:46.461Z,13.47
2018-04-27T00:36:14.664Z,13.20
2018-04-27T00:38:57.902Z,14.37
2018-04-27T00:41:25.592Z,13.80
2018-04-27T00:43:53.433Z,12.90
2018-04-27T00:46:21.113Z,14.50
2018-04-27T00:49:04.425Z,13.00
2018-04-27T00:51:32.478Z,13.37
2018-04-27T00:54:01.151Z,13.20
2018-04-27T00:56:28.848Z,15.20
2018-04-27T00:58:58.620Z,14.60
2018-04-27T01:01:27.091Z,14.10
2018-04-27T01:03:59.979Z,13.23
2018-04-27T01:06:27.656Z,14.37
2018-04-27T01:08:55.293Z,11.70
2018-04-27T01:11:22.984Z,15.57
2018-04-27T01:13:52.527Z,13.03
2018-04-27T01:16:21.099Z,15.23
2018-04-27T01:18:53.032Z,15.07
2018-04-27T01:21:21.504Z,16.77
2018-04-27T01:26:51.381Z,14.97
2018-04-27T01:29:19.826Z,13.33
2018-04-27T01:31:51.662Z,15.13
2018-04-27T01:34:20.215Z,16.07
2018-04-27T01:36:49.230Z,14.00
2018-04-27T01:39:16.883Z,15.93
2018-04-27T01:41:45.598Z,15.03
2018-04-27T01:44:13.648Z,13.47
2018-04-27T01:47:01.328Z,14.87
2018-04-27T01:49:29.746Z,15.10
2018-04-27T01:51:58.381Z,14.60
2018-04-27T01:54:26.457Z,14.10
2018-04-27T01:56:54.925Z,14.27
2018-04-27T01:59:24.097Z,13.83
2018-04-27T02:01:57.836Z,12.63
2018-04-27T02:04:25.886Z,12.83
2018-04-27T02:06:53.528Z,13.67
2018-04-27T02:09:21.211Z,11.93
2018-04-27T02:11:49.274Z,13.77
2018-04-27T02:14:17.716Z,12.43
2018-04-27T02:16:45.478Z,11.63
2018-04-27T02:19:13.932Z,13.87
2018-04-27T02:21:54.929Z,12.97
2018-04-27T02:24:23.704Z,12.50
2018-04-27T02:27:08.874Z,12.07
2018-04-27T02:29:36.553Z,12.27
2018-04-27T02:32:05.047Z,14.10
2018-04-27T02:34:33.483Z,12.93
2018-04-27T02:37:07.783Z,14.30
2018-04-27T02:39:36.197Z,12.33
2018-04-27T02:42:06.583Z,12.37
2018-04-27T02:44:34.247Z,12.37
2018-04-27T02:47:06.853Z,12.20
2018-04-27T02:49:35.677Z,13.73
2018-04-27T02:52:04.277Z,12.40
2018-04-27T02:54:31.988Z,13.13
2018-04-27T02:57:00.070Z,13.57
2018-04-27T02:59:28.177Z,13.20
2018-04-27T03:01:57.779Z,13.40
2018-04-27T03:04:26.596Z,13.17
2018-04-27T03:06:57.483Z,12.37
2018-04-27T03:09:26.427Z,11.87
2018-04-27T03:11:57.593Z,13.50
2018-04-27T03:14:26.774Z,12.10
2018-04-27T03:16:54.467Z,12.83
2018-04-27T03:19:23.512Z,13.03
2018-04-27T03:21:53.565Z,12.33
2018-04-27T03:24:23.246Z,12.90
2018-04-27T03:26:51.308Z,12.20
2018-04-27T03:29:19.017Z,12.47
2018-04-27T03:31:46.675Z,12.30
2018-04-27T03:34:14.875Z,12.67
2018-04-27T03:36:43.530Z,13.27
2018-04-27T03:39:11.578Z,13.80
2018-04-27T03:41:39.258Z,15.13
2018-04-27T03:44:21.762Z,13.37
2018-04-27T03:46:50.811Z,13.33
2018-04-27T03:49:20.011Z,13.00
2018-04-27T03:51:47.705Z,14.37
2018-04-27T03:54:26.144Z,12.57
2018-04-27T03:56:53.838Z,13.30
2018-04-27T03:59:36.145Z,12.20
2018-04-27T04:02:19.733Z,12.97
2018-04-27T04:07:50.831Z,14.27
2018-04-27T04:10:19.313Z,13.13
2018-04-27T04:12:47.734Z,16.10
2018-04-27T04:15:15.407Z,14.10
2018-04-27T04:17:43.997Z,15.87
2018-04-27T04:20:13.181Z,14.03
2018-04-27T04:22:51.090Z,15.00
2018-04-27T04:25:19.495Z,14.33
2018-04-27T04:27:57.228Z,15.03
2018-04-27T04:30:25.652Z,15.13
2018-04-27T04:32:57.097Z,14.63
2018-04-27T04:35:24.746Z,13.23
2018-04-27T04:38:13.433Z,13.10
2018-04-27T04:40:41.984Z,14.23
2018-04-27T04:43:12.891Z,13.87
2018-04-27T04:45:40.626Z,13.73
2018-04-27T04:48:16.206Z,13.17
2018-04-27T04:50:44.275Z,13.70
2018-04-27T04:53:15.974Z,14.17
2018-04-27T04:55:43.620Z,13.00
2018-04-27T04:58:16.521Z,14.17
2018-04-27T05:00:44.178Z,12.80
2018-04-27T05:03:14.409Z,13.73
2018-04-27T05:05:42.113Z,15.33
2018-04-27T05:08:09.887Z,13.40
2018-04-27T05:10:38.879Z,13.17
2018-04-27T05:13:08.279Z,13.03
2018-04-27T05:15:36.758Z,12.73
2018-04-27T05:18:18.030Z,13.50
2018-04-27T05:20:47.768Z,11.63
2018-04-27T05:23:20.242Z,14.50
2018-04-27T05:25:48.367Z,13.77
2018-04-27T05:28:20.344Z,12.60
2018-04-27T05:30:49.332Z,12.90
2018-04-27T05:33:29.622Z,12.03
2018-04-27T05:35:58.078Z,12.57
2018-04-27T05:38:27.121Z,12.00
2018-04-27T05:40:55.647Z,11.77
2018-04-27T05:43:27.522Z,14.17
2018-04-27T05:45:55.393Z,11.70
2018-04-27T05:48:25.631Z,15.00
2018-04-27T05:50:54.133Z,13.07
2018-04-27T05:53:22.703Z,12.50
2018-04-27T05:55:51.922Z,11.23
2018-04-27T05:58:21.722Z,11.70
2018-04-27T06:00:50.182Z,12.70
2018-04-27T06:03:24.776Z,11.30
2018-04-27T06:05:53.891Z,12.63
2018-04-27T06:08:22.341Z,9.83
2018-04-27T06:10:52.048Z,10.27
2018-04-27T06:13:20.666Z,11.07
2018-04-27T06:16:01.151Z,11.63
2018-04-27T06:18:29.222Z,10.67
2018-04-27T06:21:11.873Z,9.87
2018-04-27T06:23:39.918Z,10.10
2018-04-27T06:26:08.396Z,10.40
2018-04-27T06:28:50.976Z,9.93
2018-04-27T06:31:18.827Z,10.00
2018-04-27T06:33:47.289Z,8.83
2018-04-27T06:36:15.072Z,9.27
2018-04-27T06:38:47.567Z,8.90
2018-04-27T06:41:15.286Z,8.43
2018-04-27T06:43:53.763Z,9.07
2018-04-27T06:46:21.478Z,8.53
2018-04-27T06:49:02.648Z,8.37
2018-04-27T06:51:31.206Z,8.37
2018-04-27T06:53:59.895Z,7.70
2018-04-27T06:56:27.791Z,7.37
2018-04-27T06:58:57.300Z,8.10
2018-04-27T07:01:26.560Z,7.90
2018-04-27T07:03:54.349Z,6.80
2018-04-27T07:06:22.830Z,7.47
2018-04-27T07:08:50.545Z,6.07
2018-04-27T07:11:18.255Z,6.30
2018-04-27T07:13:47.019Z,7.33
2018-04-27T07:16:15.457Z,6.77
2018-04-27T07:18:43.137Z,7.10
2018-04-27T07:21:11.608Z,7.37
2018-04-27T07:23:40.331Z,7.27
2018-04-27T07:26:08.007Z,6.27
2018-04-27T07:28:35.722Z,7.23
2018-04-27T07:31:04.178Z,7.03
2018-04-27T07:33:31.913Z,7.07
2018-04-27T07:35:59.568Z,6.43
2018-04-27T07:38:28.728Z,6.67
2018-04-27T07:40:57.223Z,6.60
2018-04-27T07:43:29.168Z,6.07
2018-04-27T07:45:57.652Z,6.40
2018-04-27T07:48:27.730Z,6.67
2018-04-27T07:50:55.970Z,6.50
2018-04-27T07:53:24.772Z,5.97
2018-04-27T07:55:52.907Z,6.20
2018-04-27T07:58:22.730Z,6.50
2018-04-27T08:00:50.482Z,5.50
2018-04-27T08:03:19.766Z,6.23
2018-04-27T08:05:48.275Z,6.07
2018-04-27T08:08:16.957Z,5.60
2018-04-27T08:10:45.401Z,6.07
2018-04-27T08:13:14.892Z,5.70
2018-04-27T08:15:43.749Z,6.10
2018-04-27T08:18:13.033Z,5.57
2018-04-27T08:20:41.313Z,6.23
2018-04-27T08:23:09.448Z,5.53
2018-04-27T08:25:37.936Z,4.90
2018-04-27T08:28:07.415Z,5.47
2018-04-27T08:30:36.045Z,5.43
2018-04-27T08:33:04.555Z,4.50
2018-04-27T08:35:32.252Z,5.77
2018-04-27T08:38:02.713Z,5.67
2018-04-27T08:40:30.412Z,5.77
2018-04-27T08:42:58.533Z,5.70
2018-04-27T08:45:26.214Z,4.87
2018-04-27T08:47:53.886Z,5.50
2018-04-27T08:50:21.591Z,5.53
2018-04-27T08:52:50.105Z,5.40
2018-04-27T08:55:18.404Z,5.97
2018-04-27T08:57:57.402Z,5.17
2018-04-27T09:00:25.623Z,4.70
2018-04-27T09:02:59.037Z,5.13
2018-04-27T09:05:27.608Z,5.50
2018-04-27T09:08:04.327Z,5.17
2018-04-27T09:10:32.406Z,4.27
2018-04-27T09:13:01.140Z,5.00
2018-04-27T09:15:29.629Z,4.40
2018-04-27T09:17:58.718Z,4.33
2018-04-27T09:20:26.508Z,4.33
2018-04-27T09:23:05.139Z,4.23
2018-04-27T09:25:32.827Z,4.30
2018-04-27T09:28:06.879Z,3.90
2018-04-27T09:30:34.579Z,4.83
2018-04-27T09:33:02.726Z,4.60
2018-04-27T09:35:31.328Z,4.20
2018-04-27T09:38:06.750Z,4.13
2018-04-27T09:40:35.241Z,4.47
2018-04-27T09:43:12.263Z,4.47
2018-04-27T09:45:39.977Z,3.60
2018-04-27T09:48:07.719Z,4.47
2018-04-27T09:50:36.906Z,3.20
2018-04-27T09:53:04.626Z,2.23
2018-04-27T09:55:32.649Z,1.97
2018-04-27T09:58:06.305Z,1.33
2018-04-27T10:00:34.034Z,1.63
2018-04-27T10:06:05.640Z,1.77
2018-04-27T10:08:34.120Z,1.70
2018-04-27T10:11:01.866Z,1.97
2018-04-27T10:13:30.306Z,1.67
2018-04-27T10:16:21.629Z,1.90
2018-04-27T10:18:49.692Z,1.90
2018-04-27T10:21:18.204Z,1.73
2018-04-27T10:23:46.640Z,1.73
2018-04-27T10:29:20.761Z,2.07
2018-04-27T10:31:48.450Z,2.00
2018-04-27T10:34:16.227Z,2.13
2018-04-27T10:36:43.907Z,2.00
2018-04-27T10:39:17.210Z,2.40
2018-04-27T10:41:45.291Z,2.20
2018-04-27T10:44:13.900Z,2.10
2018-04-27T10:46:41.666Z,2.33
2018-04-27T10:49:11.124Z,2.40
2018-04-27T10:51:39.265Z,1.90
2018-04-27T10:54:08.950Z,1.83
2018-04-27T10:56:37.803Z,2.10
2018-04-27T10:59:07.317Z,2.03
2018-04-27T11:01:35.059Z,1.80
2018-04-27T11:04:10.788Z,2.30
2018-04-27T11:06:38.547Z,2.00
2018-04-27T11:09:07.071Z,1.80
2018-04-27T11:11:35.578Z,1.90
2018-04-27T11:14:06.406Z,2.00
2018-04-27T11:16:34.895Z,1.97
2018-04-27T11:19:02.770Z,1.87
2018-04-27T11:21:31.259Z,1.30
2018-04-27T11:24:01.014Z,1.83
2018-04-27T11:26:29.143Z,1.33
2018-04-27T11:29:11.145Z,1.20
2018-04-27T11:31:38.831Z,1.73
2018-04-27T11:34:07.525Z,1.67
2018-04-27T11:36:37.165Z,1.60
2018-04-27T11:39:10.699Z,1.43
2018-04-27T11:41:39.320Z,1.73
2018-04-27T11:44:11.060Z,1.37
2018-04-27T11:46:39.592Z,1.50
2018-04-27T11:49:15.626Z,1.67
2018-04-27T11:51:44.779Z,1.70
2018-04-27T11:54:12.890Z,1.50
2018-04-27T11:56:41.392Z,1.80
2018-04-27T11:59:09.567Z,2.10
2018-04-27T12:01:37.439Z,1.50
2018-04-27T12:04:09.603Z,1.47
2018-04-27T12:06:37.387Z,1.53
2018-04-27T12:09:05.154Z,1.60
2018-04-27T12:11:32.889Z,1.50
2018-04-27T12:14:02.945Z,1.33
2018-04-27T12:16:30.641Z,1.83
2018-04-27T12:19:03.390Z,1.90
2018-04-27T12:21:32.391Z,1.50
2018-04-27T12:24:01.481Z,1.70
2018-04-27T12:26:30.000Z,1.40
2018-04-27T12:29:00.557Z,1.77
2018-04-27T12:31:29.699Z,1.70
2018-04-27T12:33:58.706Z,1.40
2018-04-27T12:36:28.213Z,1.40
2018-04-27T12:38:58.337Z,1.63
2018-04-27T12:41:29.244Z,1.90
2018-04-27T12:43:58.333Z,1.67
2018-04-27T12:46:26.058Z,1.70
2018-04-27T12:48:55.108Z,1.87
2018-04-27T12:51:24.407Z,1.30
2018-04-27T12:53:53.448Z,1.40
2018-04-27T12:56:21.344Z,1.50
2018-04-27T12:58:50.981Z,1.50
2018-04-27T13:01:18.636Z,1.80
2018-04-27T13:03:46.388Z,1.50
2018-04-27T13:06:14.701Z,1.90
2018-04-27T13:08:45.172Z,1.90
2018-04-27T13:11:13.345Z,1.40
2018-04-27T13:13:42.096Z,1.67
2018-04-27T13:16:10.369Z,1.87
2018-04-27T13:18:39.868Z,1.93
2018-04-27T13:21:08.275Z,1.80
2018-04-27T13:23:35.980Z,1.13
2018-04-27T13:26:03.741Z,1.63
2018-04-27T13:28:35.698Z,1.97
2018-04-27T13:31:04.203Z,1.43
2018-04-27T13:33:34.173Z,1.83
2018-04-27T13:36:01.863Z,1.77
2018-04-27T13:38:29.961Z,1.83
2018-04-27T13:40:58.456Z,3.20
2018-04-27T13:43:31.157Z,1.70
2018-04-27T13:45:58.862Z,1.53
2018-04-27T13:48:27.367Z,1.70
2018-04-27T13:50:55.328Z,1.50
2018-04-27T13:53:24.492Z,1.60
2018-04-27T13:55:52.984Z,1.50
2018-04-27T13:58:21.847Z,1.70
2018-04-27T14:00:49.603Z,1.63
2018-04-27T14:03:19.638Z,1.83
2018-04-27T14:05:48.161Z,1.93
2018-04-27T14:08:16.873Z,2.00
2018-04-27T14:10:45.356Z,1.90
2018-04-27T14:13:14.376Z,1.63
2018-04-27T14:15:42.172Z,2.17
2018-04-27T14:18:10.713Z,1.60
2018-04-27T14:20:39.200Z,1.63
2018-04-27T14:23:09.277Z,1.77
2018-04-27T14:25:37.259Z,1.50
2018-04-27T14:28:06.333Z,1.80
2018-04-27T14:30:34.779Z,1.70
2018-04-27T14:33:03.822Z,1.77
2018-04-27T14:35:31.921Z,1.30
2018-04-27T14:38:06.118Z,1.83
2018-04-27T14:40:34.921Z,19.80
2018-04-27T14:43:02.636Z,1.57
2018-04-27T14:45:31.674Z,1.93
2018-04-27T14:48:00.259Z,4.57
2018-04-27T14:50:28.720Z,3.67
2018-04-27T14:52:57.118Z,2.20
2018-04-27T14:55:26.145Z,1.50
2018-04-27T14:57:55.341Z,2.90
2018-04-27T15:00:23.595Z,2.30
2018-04-27T15:02:51.345Z,1.80
2018-04-27T15:05:20.358Z,1.50
2018-04-27T15:07:49.077Z,2.90
2018-04-27T15:10:16.811Z,1.20
2018-04-27T15:12:46.067Z,2.73
2018-04-27T15:15:15.065Z,1.47
2018-04-27T15:17:43.229Z,1.67
2018-04-27T15:20:11.273Z,1.43
2018-04-27T15:22:40.789Z,1.60
2018-04-27T15:25:09.794Z,1.17
2018-04-27T15:27:38.957Z,0.97
2018-04-27T15:30:07.416Z,1.03
2018-04-27T15:32:38.053Z,1.13
2018-04-27T15:35:07.111Z,1.33
2018-04-27T15:37:36.613Z,1.20
2018-04-27T15:40:05.579Z,1.20
2018-04-27T15:42:33.268Z,1.07
2018-04-27T15:45:02.289Z,1.37
2018-04-27T15:47:34.606Z,1.30
2018-04-27T15:50:02.747Z,1.23
2018-04-27T15:52:32.790Z,2.10
2018-04-27T15:55:01.808Z,1.67
2018-04-27T15:57:32.275Z,1.40
2018-04-27T16:00:00.043Z,2.50
2018-04-27T16:02:31.874Z,2.97
2018-04-27T16:04:59.645Z,2.30
2018-04-27T16:07:28.655Z,1.70
2018-04-27T16:09:56.347Z,1.80
2018-04-27T16:12:27.752Z,1.53
2018-04-27T16:14:56.259Z,1.30
2018-04-27T16:17:25.303Z,1.63
2018-04-27T16:19:53.783Z,1.93
2018-04-27T16:22:22.848Z,1.80
2018-04-27T16:24:52.309Z,1.80
2018-04-27T16:27:21.383Z,1.57
2018-04-27T16:29:50.300Z,1.70
2018-04-27T16:32:21.651Z,1.30
2018-04-27T16:34:50.879Z,1.60
2018-04-27T16:37:20.948Z,1.50
2018-04-27T16:39:50.160Z,1.40
2018-04-27T16:42:17.899Z,1.30
2018-04-27T16:44:46.328Z,1.90
2018-04-27T16:47:15.365Z,1.80
2018-04-27T16:49:44.522Z,1.90
2018-04-27T16:52:14.237Z,1.60
2018-04-27T16:54:42.749Z,1.80
2018-04-27T16:57:11.875Z,1.97
2018-04-27T16:59:40.362Z,1.70
2018-04-27T17:02:09.382Z,1.90
2018-04-27T17:04:37.085Z,1.80
2018-04-27T17:07:06.121Z,1.80
2018-04-27T17:09:35.051Z,1.43
2018-04-27T17:12:04.498Z,1.37
2018-04-27T17:14:33.159Z,1.70
2018-04-27T17:17:02.212Z,1.80
2018-04-27T17:19:31.430Z,1.50
2018-04-27T17:22:00.935Z,1.40
2018-04-27T17:24:29.064Z,2.07
2018-04-27T17:26:58.118Z,1.67
2018-04-27T17:29:27.009Z,1.63
2018-04-27T17:31:58.470Z,1.80
2018-04-27T17:34:26.950Z,1.70
2018-04-27T17:36:58.163Z,1.90
2018-04-27T17:39:27.131Z,1.57
2018-04-27T17:41:57.004Z,1.67
2018-04-27T17:44:25.675Z,1.40
2018-04-27T17:46:57.044Z,1.30
2018-04-27T17:49:26.088Z,1.37
2018-04-27T17:51:56.141Z,1.53
2018-04-27T17:54:24.273Z,1.40
2018-04-27T17:57:03.711Z,1.57
2018-04-27T17:59:32.201Z,1.67
2018-04-27T18:02:03.263Z,1.70
2018-04-27T18:04:32.290Z,3.03
2018-04-27T18:07:01.344Z,2.00
2018-04-27T18:09:29.243Z,2.73
2018-04-27T18:11:59.261Z,1.80
2018-04-27T18:14:28.315Z,1.90
2018-04-27T18:16:58.136Z,2.17
2018-04-27T18:19:26.341Z,2.30
2018-04-27T18:21:56.313Z,2.10
2018-04-27T18:24:25.363Z,1.60
2018-04-27T18:26:59.019Z,1.77
2018-04-27T18:29:27.211Z,2.10
2018-04-27T18:31:56.961Z,2.07
2018-04-27T18:34:25.078Z,1.47
2018-04-27T18:36:55.309Z,1.80
2018-04-27T18:39:24.223Z,1.80
2018-04-27T18:41:53.430Z,2.27
2018-04-27T18:44:21.535Z,1.97
2018-04-27T18:46:50.088Z,1.80
2018-04-27T18:49:17.815Z,2.10
2018-04-27T18:51:51.402Z,1.50
2018-04-27T18:54:19.830Z,1.60
2018-04-27T18:56:48.397Z,1.73
2018-04-27T18:59:16.900Z,1.53
2018-04-27T19:01:45.377Z,1.77
2018-04-27T19:04:15.600Z,1.50
2018-04-27T19:06:44.043Z,2.00
2018-04-27T19:09:13.105Z,2.10
2018-04-27T19:11:43.632Z,2.00
2018-04-27T19:14:12.852Z,1.80
2018-04-27T19:16:40.611Z,1.83
2018-04-27T19:19:09.489Z,2.10
2018-04-27T19:21:37.415Z,2.10
2018-04-27T19:24:05.251Z,2.07
2018-04-27T19:26:34.279Z,2.30
2018-04-27T19:29:02.036Z,2.30
2018-04-27T19:31:30.164Z,2.40
2018-04-27T19:33:59.639Z,2.07
2018-04-27T19:36:28.398Z,2.07
2018-04-27T19:38:56.120Z,2.10
2018-04-27T19:41:25.718Z,1.60
2018-04-27T19:43:54.196Z,2.50
2018-04-27T19:46:22.721Z,2.43
2018-04-27T19:48:50.868Z,1.90
2018-04-27T19:51:18.551Z,2.20
2018-04-27T19:53:47.023Z,2.37
2018-04-27T19:56:16.671Z,2.13
2018-04-27T19:58:45.746Z,2.33
2018-04-27T20:01:13.897Z,2.30
2018-04-27T20:03:42.413Z,2.70
2018-04-27T20:06:10.556Z,3.10
2018-04-27T20:08:39.594Z,2.50
2018-04-27T20:11:08.226Z,2.53
2018-04-27T20:13:36.659Z,2.20
2018-04-27T20:16:04.404Z,2.57
2018-04-27T20:18:32.877Z,2.87
2018-04-27T20:21:01.029Z,2.57
2018-04-27T20:23:36.176Z,2.10
2018-04-27T20:26:05.871Z,2.33
2018-04-27T20:28:42.115Z,2.47
2018-04-27T20:31:10.212Z,2.20
2018-04-27T20:33:39.548Z,2.33
2018-04-27T20:36:08.157Z,2.50
2018-04-27T20:38:37.265Z,2.80
2018-04-27T20:41:14.719Z,2.60
2018-04-27T20:43:43.228Z,2.50
2018-04-27T20:46:10.941Z,2.47
2018-04-27T20:48:40.204Z,2.83
2018-04-27T20:51:10.833Z,3.10
2018-04-27T20:56:43.202Z,2.70
2018-04-27T20:59:11.762Z,2.63
2018-04-27T21:01:41.907Z,2.60
2018-04-27T21:04:10.047Z,2.50
2018-04-27T21:06:37.829Z,2.77
2018-04-27T21:09:06.736Z,2.43
2018-04-27T21:11:35.774Z,2.60
2018-04-27T21:14:03.917Z,2.80
2018-04-27T21:16:33.166Z,2.33
2018-04-27T21:19:01.097Z,2.57
2018-04-27T21:21:29.609Z,2.30
2018-04-27T21:23:57.316Z,2.30
2018-04-27T21:26:28.422Z,2.23
2018-04-27T21:28:56.974Z,2.50
2018-04-27T21:31:28.911Z,2.27
2018-04-27T21:33:58.074Z,2.47
2018-04-27T21:36:32.092Z,2.50
2018-04-27T21:42:02.656Z,2.37
2018-04-27T21:44:46.412Z,2.60
2018-04-27T21:47:38.044Z,2.67
2018-04-27T21:50:08.579Z,2.60
2018-04-27T21:52:43.013Z,2.70
2018-04-27T21:55:11.550Z,2.83
2018-04-27T21:57:40.075Z,2.30
2018-04-27T22:00:22.795Z,2.63
2018-04-27T22:03:05.715Z,3.27
2018-04-27T22:08:51.535Z,2.40
2018-04-27T22:14:29.789Z,2.80
2018-04-27T22:17:08.580Z,3.00
2018-04-27T22:19:37.057Z,2.53
2018-04-27T22:22:07.788Z,2.73
2018-04-27T22:25:00.823Z,2.40
2018-04-27T22:27:31.550Z,3.17
2018-04-27T22:30:14.139Z,2.90
2018-04-27T22:32:41.893Z,2.93
2018-04-27T22:38:22.246Z,3.07
2018-04-27T22:40:51.306Z,2.90
2018-04-27T22:43:19.011Z,2.87
2018-04-27T22:46:01.637Z,3.07
2018-04-27T22:48:49.674Z,3.60
2018-04-27T22:54:38.216Z,3.07
2018-04-27T22:57:14.235Z,2.97
2018-04-27T22:59:46.577Z,2.80
2018-04-27T23:02:19.007Z,3.63
2018-04-27T23:07:49.421Z,2.80
2018-04-27T23:10:18.366Z,2.70
2018-04-27T23:12:59.396Z,3.13
2018-04-27T23:15:27.126Z,2.50
2018-04-27T23:17:55.618Z,3.17
2018-04-27T23:20:26.729Z,2.93
2018-04-27T23:22:58.121Z,3.40
2018-04-27T23:25:36.252Z,3.30
2018-04-27T23:28:03.962Z,3.50
2018-04-27T23:30:37.681Z,2.97
2018-04-27T23:33:06.201Z,2.77
2018-04-27T23:35:47.155Z,2.50
2018-04-27T23:38:14.920Z,3.60
2018-04-27T23:40:44.131Z,3.30
2018-04-27T23:43:13.512Z,3.00
2018-04-27T23:45:44.514Z,3.10
2018-04-27T23:48:13.004Z,3.03
2018-04-27T23:50:52.458Z,2.80
2018-04-27T23:53:21.329Z,2.80
2018-04-27T23:55:49.501Z,2.73
2018-04-27T23:58:21.029Z,2.87
